Lower Ranchito, New Mexico
Current Conditions -  °F | °C
As of 8:15 PM on Tuesday 25 Nov 2014 (Local Time) from KSKX Reporting Station
Clear Clear  
Wind Chill: 16°   Ceiling: Unl
Heat Index: 27°   Visibility: 10mi
Dew Point:   Wind: 13mph
Humidity: 47%   Direction: 220°SW
Pressure: 30.25"   Gusts: NA
Location:  36.6959°N, 106.135°W
Report Text: KSKX 260315Z AUTO 22011KT 10SM CLR M03/M13 A3025 RMK AO1
Loading
Personal Weather Stations






























Interactive Weather Map New forecast layout! Learn more

10-Day Weather Forecast

Advertisements
Track Severe Weather on mobile